sensor_id;sensor_type;location;lat;lon;timestamp;temperature;humidity
27823;DHT22;29019;47.630;8.262;2023-06-10T00:02:28;21.70;55.20
27823;DHT22;29019;47.630;8.262;2023-06-10T00:06:29;21.70;55.20
27823;DHT22;29019;47.630;8.262;2023-06-10T00:10:36;21.70;55.20
27823;DHT22;29019;47.630;8.262;2023-06-10T00:14:38;21.80;55.20
27823;DHT22;29019;47.630;8.262;2023-06-10T00:18:39;21.80;55.20
27823;DHT22;29019;47.630;8.262;2023-06-10T00:22:40;21.80;55.20
27823;DHT22;29019;47.630;8.262;2023-06-10T00:26:41;21.70;55.20
27823;DHT22;29019;47.630;8.262;2023-06-10T00:30:42;21.80;55.20
27823;DHT22;29019;47.630;8.262;2023-06-10T00:34:43;21.70;55.20
27823;DHT22;29019;47.630;8.262;2023-06-10T00:38:43;21.80;55.20
27823;DHT22;29019;47.630;8.262;2023-06-10T00:42:44;21.70;55.20
27823;DHT22;29019;47.630;8.262;2023-06-10T00:46:45;21.70;55.20
27823;DHT22;29019;47.630;8.262;2023-06-10T00:50:47;21.80;55.30
27823;DHT22;29019;47.630;8.262;2023-06-10T00:54:47;21.70;55.20
27823;DHT22;29019;47.630;8.262;2023-06-10T00:58:48;21.80;55.20
27823;DHT22;29019;47.630;8.262;2023-06-10T01:02:49;21.70;55.20
27823;DHT22;29019;47.630;8.262;2023-06-10T01:07:03;21.80;55.20
27823;DHT22;29019;47.630;8.262;2023-06-10T01:11:09;21.80;55.20
27823;DHT22;29019;47.630;8.262;2023-06-10T01:15:17;21.70;55.20
27823;DHT22;29019;47.630;8.262;2023-06-10T01:19:18;21.70;55.30
27823;DHT22;29019;47.630;8.262;2023-06-10T01:23:18;21.70;55.30
27823;DHT22;29019;47.630;8.262;2023-06-10T01:27:21;21.70;55.40
27823;DHT22;29019;47.630;8.262;2023-06-10T01:35:37;21.70;55.40
27823;DHT22;29019;47.630;8.262;2023-06-10T01:39:39;21.70;55.40
27823;DHT22;29019;47.630;8.262;2023-06-10T01:43:43;21.70;55.30
27823;DHT22;29019;47.630;8.262;2023-06-10T01:47:44;21.70;55.40
27823;DHT22;29019;47.630;8.262;2023-06-10T01:51:44;21.70;55.30
27823;DHT22;29019;47.630;8.262;2023-06-10T01:55:45;21.70;55.30
27823;DHT22;29019;47.630;8.262;2023-06-10T01:59:45;21.70;55.20
27823;DHT22;29019;47.630;8.262;2023-06-10T02:03:47;21.70;55.30
27823;DHT22;29019;47.630;8.262;2023-06-10T02:07:47;21.70;55.20
27823;DHT22;29019;47.630;8.262;2023-06-10T02:11:48;21.70;55.30
27823;DHT22;29019;47.630;8.262;2023-06-10T02:15:49;21.70;55.30
27823;DHT22;29019;47.630;8.262;2023-06-10T02:19:50;21.70;55.20
27823;DHT22;29019;47.630;8.262;2023-06-10T02:23:53;21.70;55.30
27823;DHT22;29019;47.630;8.262;2023-06-10T02:27:53;21.70;55.30
27823;DHT22;29019;47.630;8.262;2023-06-10T02:31:54;21.70;55.30
27823;DHT22;29019;47.630;8.262;2023-06-10T02:35:55;21.70;55.30
27823;DHT22;29019;47.630;8.262;2023-06-10T02:39:56;21.70;55.30
27823;DHT22;29019;47.630;8.262;2023-06-10T02:43:57;21.70;55.30
27823;DHT22;29019;47.630;8.262;2023-06-10T02:47:57;21.70;55.30
27823;DHT22;29019;47.630;8.262;2023-06-10T02:51:58;21.70;55.30
27823;DHT22;29019;47.630;8.262;2023-06-10T02:55:59;21.70;55.30
27823;DHT22;29019;47.630;8.262;2023-06-10T03:00:00;21.70;55.40
27823;DHT22;29019;47.630;8.262;2023-06-10T03:04:01;21.70;55.40
27823;DHT22;29019;47.630;8.262;2023-06-10T03:08:03;21.70;55.40
27823;DHT22;29019;47.630;8.262;2023-06-10T03:12:04;21.70;55.40
27823;DHT22;29019;47.630;8.262;2023-06-10T03:16:05;21.70;55.40
27823;DHT22;29019;47.630;8.262;2023-06-10T03:20:06;21.70;55.40
27823;DHT22;29019;47.630;8.262;2023-06-10T03:24:08;21.70;55.40
27823;DHT22;29019;47.630;8.262;2023-06-10T03:28:09;21.70;55.40
27823;DHT22;29019;47.630;8.262;2023-06-10T03:32:09;21.70;55.40
27823;DHT22;29019;47.630;8.262;2023-06-10T03:36:10;21.70;55.30
27823;DHT22;29019;47.630;8.262;2023-06-10T03:40:11;21.70;55.40
27823;DHT22;29019;47.630;8.262;2023-06-10T03:44:12;21.70;55.40
27823;DHT22;29019;47.630;8.262;2023-06-10T03:48:13;21.70;55.40
27823;DHT22;29019;47.630;8.262;2023-06-10T03:52:13;21.70;55.40
27823;DHT22;29019;47.630;8.262;2023-06-10T03:56:14;21.70;55.30
27823;DHT22;29019;47.630;8.262;2023-06-10T04:00:15;21.70;55.40
27823;DHT22;29019;47.630;8.262;2023-06-10T04:04:18;21.70;55.30
27823;DHT22;29019;47.630;8.262;2023-06-10T04:08:18;21.70;55.30
27823;DHT22;29019;47.630;8.262;2023-06-10T04:12:19;21.70;55.40
27823;DHT22;29019;47.630;8.262;2023-06-10T04:16:20;21.70;55.30
27823;DHT22;29019;47.630;8.262;2023-06-10T04:20:21;21.70;55.40
27823;DHT22;29019;47.630;8.262;2023-06-10T04:24:22;21.70;55.40
27823;DHT22;29019;47.630;8.262;2023-06-10T04:28:23;21.70;55.40
27823;DHT22;29019;47.630;8.262;2023-06-10T04:32:23;21.70;55.40
27823;DHT22;29019;47.630;8.262;2023-06-10T04:36:24;21.70;55.40
27823;DHT22;29019;47.630;8.262;2023-06-10T04:40:24;21.60;55.40
27823;DHT22;29019;47.630;8.262;2023-06-10T04:44:26;21.60;55.40
27823;DHT22;29019;47.630;8.262;2023-06-10T04:48:26;21.70;55.40
27823;DHT22;29019;47.630;8.262;2023-06-10T04:52:27;21.70;55.40
27823;DHT22;29019;47.630;8.262;2023-06-10T04:56:27;21.70;55.40
27823;DHT22;29019;47.630;8.262;2023-06-10T05:00:29;21.60;55.40
27823;DHT22;29019;47.630;8.262;2023-06-10T05:04:29;21.70;55.40
27823;DHT22;29019;47.630;8.262;2023-06-10T05:08:30;21.70;55.40
27823;DHT22;29019;47.630;8.262;2023-06-10T05:12:31;21.70;55.40
27823;DHT22;29019;47.630;8.262;2023-06-10T05:16:31;21.70;55.40
27823;DHT22;29019;47.630;8.262;2023-06-10T05:20:32;21.70;55.40
27823;DHT22;29019;47.630;8.262;2023-06-10T05:24:33;21.70;55.40
27823;DHT22;29019;47.630;8.262;2023-06-10T05:28:33;21.70;55.40
27823;DHT22;29019;47.630;8.262;2023-06-10T05:32:34;21.70;55.40
27823;DHT22;29019;47.630;8.262;2023-06-10T05:36:35;21.70;55.30
27823;DHT22;29019;47.630;8.262;2023-06-10T05:40:35;21.70;55.40
27823;DHT22;29019;47.630;8.262;2023-06-10T05:44:36;21.70;55.40
27823;DHT22;29019;47.630;8.262;2023-06-10T05:48:37;21.70;55.30
27823;DHT22;29019;47.630;8.262;2023-06-10T05:52:37;21.70;55.30
27823;DHT22;29019;47.630;8.262;2023-06-10T05:56:40;21.70;55.40
27823;DHT22;29019;47.630;8.262;2023-06-10T06:00:41;21.70;55.40
27823;DHT22;29019;47.630;8.262;2023-06-10T06:04:42;21.70;55.40
27823;DHT22;29019;47.630;8.262;2023-06-10T06:08:42;21.60;55.40
27823;DHT22;29019;47.630;8.262;2023-06-10T06:12:43;21.60;55.30
27823;DHT22;29019;47.630;8.262;2023-06-10T06:16:44;21.60;55.40
27823;DHT22;29019;47.630;8.262;2023-06-10T06:20:44;21.70;55.40
27823;DHT22;29019;47.630;8.262;2023-06-10T06:24:45;21.60;55.40
27823;DHT22;29019;47.630;8.262;2023-06-10T06:28:46;21.60;55.40
27823;DHT22;29019;47.630;8.262;2023-06-10T06:32:47;21.70;55.40
27823;DHT22;29019;47.630;8.262;2023-06-10T06:36:47;21.70;55.40
27823;DHT22;29019;47.630;8.262;2023-06-10T06:40:48;21.70;55.40
27823;DHT22;29019;47.630;8.262;2023-06-10T06:44:48;21.70;55.40
27823;DHT22;29019;47.630;8.262;2023-06-10T06:48:49;21.70;55.40
27823;DHT22;29019;47.630;8.262;2023-06-10T06:52:50;21.70;55.40
27823;DHT22;29019;47.630;8.262;2023-06-10T06:56:50;21.70;55.40
27823;DHT22;29019;47.630;8.262;2023-06-10T07:00:51;21.70;55.40
27823;DHT22;29019;47.630;8.262;2023-06-10T07:04:51;21.70;55.40
27823;DHT22;29019;47.630;8.262;2023-06-10T07:08:55;21.70;55.40
27823;DHT22;29019;47.630;8.262;2023-06-10T07:12:56;21.70;55.40
27823;DHT22;29019;47.630;8.262;2023-06-10T07:16:57;21.70;55.40
27823;DHT22;29019;47.630;8.262;2023-06-10T07:20:57;21.70;55.30
27823;DHT22;29019;47.630;8.262;2023-06-10T07:24:58;21.70;55.40
27823;DHT22;29019;47.630;8.262;2023-06-10T07:28:59;21.70;55.30
27823;DHT22;29019;47.630;8.262;2023-06-10T07:32:59;21.70;55.30
27823;DHT22;29019;47.630;8.262;2023-06-10T07:37:00;21.70;55.30
27823;DHT22;29019;47.630;8.262;2023-06-10T07:41:01;21.70;55.40
27823;DHT22;29019;47.630;8.262;2023-06-10T07:45:03;21.70;55.40
27823;DHT22;29019;47.630;8.262;2023-06-10T07:49:04;21.70;55.40
27823;DHT22;29019;47.630;8.262;2023-06-10T07:53:04;21.60;55.30
27823;DHT22;29019;47.630;8.262;2023-06-10T07:57:05;21.70;55.40
27823;DHT22;29019;47.630;8.262;2023-06-10T08:01:07;21.70;55.40
27823;DHT22;29019;47.630;8.262;2023-06-10T08:05:08;21.70;55.40
27823;DHT22;29019;47.630;8.262;2023-06-10T08:09:09;21.70;55.40
27823;DHT22;29019;47.630;8.262;2023-06-10T08:13:09;21.70;55.40
27823;DHT22;29019;47.630;8.262;2023-06-10T08:17:11;21.70;55.40
27823;DHT22;29019;47.630;8.262;2023-06-10T08:21:11;21.70;55.40
27823;DHT22;29019;47.630;8.262;2023-06-10T08:25:12;21.60;55.30
27823;DHT22;29019;47.630;8.262;2023-06-10T08:29:13;21.70;55.90
27823;DHT22;29019;47.630;8.262;2023-06-10T08:33:14;21.70;55.40
27823;DHT22;29019;47.630;8.262;2023-06-10T08:37:14;21.70;55.40
27823;DHT22;29019;47.630;8.262;2023-06-10T08:41:17;21.70;55.40
27823;DHT22;29019;47.630;8.262;2023-06-10T08:45:18;21.70;55.40
27823;DHT22;29019;47.630;8.262;2023-06-10T08:49:21;21.70;55.40
27823;DHT22;29019;47.630;8.262;2023-06-10T08:53:24;21.70;55.40
27823;DHT22;29019;47.630;8.262;2023-06-10T08:57:26;21.70;55.30
27823;DHT22;29019;47.630;8.262;2023-06-10T09:01:27;21.70;55.30
27823;DHT22;29019;47.630;8.262;2023-06-10T09:05:29;21.70;55.40
27823;DHT22;29019;47.630;8.262;2023-06-10T09:09:29;21.70;55.40
27823;DHT22;29019;47.630;8.262;2023-06-10T09:13:31;21.70;55.40
27823;DHT22;29019;47.630;8.262;2023-06-10T09:17:32;21.70;55.40
27823;DHT22;29019;47.630;8.262;2023-06-10T09:21:34;21.70;55.90
27823;DHT22;29019;47.630;8.262;2023-06-10T09:25:36;21.70;55.40
27823;DHT22;29019;47.630;8.262;2023-06-10T09:29:54;21.60;55.40
27823;DHT22;29019;47.630;8.262;2023-06-10T09:34:01;21.60;55.30
27823;DHT22;29019;47.630;8.262;2023-06-10T09:38:04;21.70;55.40
27823;DHT22;29019;47.630;8.262;2023-06-10T09:42:18;21.70;55.40
27823;DHT22;29019;47.630;8.262;2023-06-10T09:46:19;21.70;55.40
27823;DHT22;29019;47.630;8.262;2023-06-10T09:50:20;21.70;55.40
27823;DHT22;29019;47.630;8.262;2023-06-10T09:54:22;21.70;55.30
27823;DHT22;29019;47.630;8.262;2023-06-10T09:58:39;21.70;55.40
27823;DHT22;29019;47.630;8.262;2023-06-10T10:02:50;21.70;55.40
27823;DHT22;29019;47.630;8.262;2023-06-10T10:06:51;21.70;55.40
27823;DHT22;29019;47.630;8.262;2023-06-10T10:10:52;21.70;55.40
27823;DHT22;29019;47.630;8.262;2023-06-10T10:14:55;21.70;55.30
27823;DHT22;29019;47.630;8.262;2023-06-10T10:19:01;21.70;55.30
27823;DHT22;29019;47.630;8.262;2023-06-10T10:23:03;21.70;55.30
27823;DHT22;29019;47.630;8.262;2023-06-10T10:27:13;21.70;55.30
27823;DHT22;29019;47.630;8.262;2023-06-10T10:31:20;21.70;55.80
27823;DHT22;29019;47.630;8.262;2023-06-10T10:35:22;21.70;55.30
27823;DHT22;29019;47.630;8.262;2023-06-10T10:39:23;21.70;55.20
27823;DHT22;29019;47.630;8.262;2023-06-10T10:43:25;21.70;55.30
27823;DHT22;29019;47.630;8.262;2023-06-10T10:47:27;21.70;55.30
27823;DHT22;29019;47.630;8.262;2023-06-10T10:51:34;21.70;55.80
27823;DHT22;29019;47.630;8.262;2023-06-10T10:55:34;21.70;55.40
27823;DHT22;29019;47.630;8.262;2023-06-10T10:59:45;21.70;55.40
27823;DHT22;29019;47.630;8.262;2023-06-10T11:03:46;21.70;55.40
27823;DHT22;29019;47.630;8.262;2023-06-10T11:07:52;21.70;55.40
27823;DHT22;29019;47.630;8.262;2023-06-10T11:11:58;21.70;55.40
27823;DHT22;29019;47.630;8.262;2023-06-10T11:15:59;21.70;55.40
27823;DHT22;29019;47.630;8.262;2023-06-10T11:20:04;21.70;55.30
27823;DHT22;29019;47.630;8.262;2023-06-10T11:24:12;21.70;55.30
27823;DHT22;29019;47.630;8.262;2023-06-10T11:28:20;21.70;55.30
27823;DHT22;29019;47.630;8.262;2023-06-10T11:32:21;21.70;55.30
27823;DHT22;29019;47.630;8.262;2023-06-10T11:36:22;21.70;55.20
27823;DHT22;29019;47.630;8.262;2023-06-10T11:40:23;21.70;55.30
27823;DHT22;29019;47.630;8.262;2023-06-10T11:44:27;21.70;55.30
27823;DHT22;29019;47.630;8.262;2023-06-10T11:48:29;21.70;55.70
27823;DHT22;29019;47.630;8.262;2023-06-10T11:52:31;21.70;55.20
27823;DHT22;29019;47.630;8.262;2023-06-10T11:56:38;21.70;55.20
27823;DHT22;29019;47.630;8.262;2023-06-10T12:00:55;21.70;55.20
27823;DHT22;29019;47.630;8.262;2023-06-10T12:05:14;21.70;55.20
27823;DHT22;29019;47.630;8.262;2023-06-10T12:09:28;21.70;55.20
27823;DHT22;29019;47.630;8.262;2023-06-10T12:13:29;21.70;55.20
27823;DHT22;29019;47.630;8.262;2023-06-10T12:21:32;21.70;55.20
27823;DHT22;29019;47.630;8.262;2023-06-10T12:25:33;21.70;55.20
27823;DHT22;29019;47.630;8.262;2023-06-10T12:29:34;21.70;55.20
27823;DHT22;29019;47.630;8.262;2023-06-10T12:33:34;21.70;55.20
27823;DHT22;29019;47.630;8.262;2023-06-10T12:37:35;21.70;55.30
27823;DHT22;29019;47.630;8.262;2023-06-10T12:41:37;21.70;55.20
27823;DHT22;29019;47.630;8.262;2023-06-10T12:45:39;21.70;55.20
27823;DHT22;29019;47.630;8.262;2023-06-10T12:49:40;21.70;55.20
27823;DHT22;29019;47.630;8.262;2023-06-10T12:53:41;21.70;55.20
27823;DHT22;29019;47.630;8.262;2023-06-10T12:57:50;21.70;55.20
27823;DHT22;29019;47.630;8.262;2023-06-10T13:01:51;21.70;55.20
27823;DHT22;29019;47.630;8.262;2023-06-10T13:05:52;21.70;55.10
27823;DHT22;29019;47.630;8.262;2023-06-10T13:09:53;21.70;55.10
27823;DHT22;29019;47.630;8.262;2023-06-10T13:13:53;21.70;55.10
27823;DHT22;29019;47.630;8.262;2023-06-10T13:17:54;21.70;55.10
27823;DHT22;29019;47.630;8.262;2023-06-10T13:21:55;21.70;55.10
27823;DHT22;29019;47.630;8.262;2023-06-10T13:25:56;21.80;55.20
27823;DHT22;29019;47.630;8.262;2023-06-10T13:29:57;21.70;55.10
27823;DHT22;29019;47.630;8.262;2023-06-10T13:33:58;21.80;55.10
27823;DHT22;29019;47.630;8.262;2023-06-10T13:37:58;21.80;55.10
27823;DHT22;29019;47.630;8.262;2023-06-10T13:41:59;21.80;55.10
27823;DHT22;29019;47.630;8.262;2023-06-10T13:46:00;21.80;55.10
27823;DHT22;29019;47.630;8.262;2023-06-10T13:50:00;21.80;55.10
27823;DHT22;29019;47.630;8.262;2023-06-10T13:54:01;21.80;55.60
27823;DHT22;29019;47.630;8.262;2023-06-10T13:58:02;21.80;55.10
27823;DHT22;29019;47.630;8.262;2023-06-10T14:02:02;21.80;55.00
27823;DHT22;29019;47.630;8.262;2023-06-10T14:06:04;21.80;55.00
27823;DHT22;29019;47.630;8.262;2023-06-10T14:10:05;21.80;54.90
27823;DHT22;29019;47.630;8.262;2023-06-10T14:14:06;21.80;55.00
27823;DHT22;29019;47.630;8.262;2023-06-10T14:18:07;21.80;55.00
27823;DHT22;29019;47.630;8.262;2023-06-10T14:22:07;21.80;54.90
27823;DHT22;29019;47.630;8.262;2023-06-10T14:26:09;21.80;54.90
27823;DHT22;29019;47.630;8.262;2023-06-10T14:30:10;21.80;55.00
27823;DHT22;29019;47.630;8.262;2023-06-10T14:34:10;21.80;54.90
27823;DHT22;29019;47.630;8.262;2023-06-10T14:38:11;21.80;55.00
27823;DHT22;29019;47.630;8.262;2023-06-10T14:42:12;21.80;55.00
27823;DHT22;29019;47.630;8.262;2023-06-10T14:46:12;21.80;55.00
27823;DHT22;29019;47.630;8.262;2023-06-10T14:50:13;21.80;55.00
27823;DHT22;29019;47.630;8.262;2023-06-10T14:54:14;21.90;55.00
27823;DHT22;29019;47.630;8.262;2023-06-10T14:58:15;21.80;55.00
27823;DHT22;29019;47.630;8.262;2023-06-10T15:02:15;21.80;55.00
27823;DHT22;29019;47.630;8.262;2023-06-10T15:06:16;21.80;55.00
27823;DHT22;29019;47.630;8.262;2023-06-10T15:10:21;21.80;55.00
27823;DHT22;29019;47.630;8.262;2023-06-10T15:14:21;21.80;55.00
27823;DHT22;29019;47.630;8.262;2023-06-10T15:18:22;21.80;55.00
27823;DHT22;29019;47.630;8.262;2023-06-10T15:22:23;21.80;55.00
27823;DHT22;29019;47.630;8.262;2023-06-10T15:26:23;21.80;55.00
27823;DHT22;29019;47.630;8.262;2023-06-10T15:30:25;21.80;55.00
27823;DHT22;29019;47.630;8.262;2023-06-10T15:34:25;21.80;55.00
27823;DHT22;29019;47.630;8.262;2023-06-10T15:38:26;21.80;55.00
27823;DHT22;29019;47.630;8.262;2023-06-10T15:42:27;21.80;55.10
27823;DHT22;29019;47.630;8.262;2023-06-10T15:46:29;21.80;55.10
27823;DHT22;29019;47.630;8.262;2023-06-10T15:50:30;21.80;55.10
27823;DHT22;29019;47.630;8.262;2023-06-10T15:54:31;21.80;55.10
27823;DHT22;29019;47.630;8.262;2023-06-10T15:58:31;21.80;55.10
27823;DHT22;29019;47.630;8.262;2023-06-10T16:02:32;21.80;55.10
27823;DHT22;29019;47.630;8.262;2023-06-10T16:06:33;21.80;55.10
27823;DHT22;29019;47.630;8.262;2023-06-10T16:10:34;21.80;55.10
27823;DHT22;29019;47.630;8.262;2023-06-10T16:14:35;21.80;55.10
27823;DHT22;29019;47.630;8.262;2023-06-10T16:18:36;21.80;55.10
27823;DHT22;29019;47.630;8.262;2023-06-10T16:22:36;21.80;55.10
27823;DHT22;29019;47.630;8.262;2023-06-10T16:26:37;21.80;55.10
27823;DHT22;29019;47.630;8.262;2023-06-10T16:30:38;21.80;55.10
27823;DHT22;29019;47.630;8.262;2023-06-10T16:34:38;21.80;55.10
27823;DHT22;29019;47.630;8.262;2023-06-10T16:38:39;21.80;55.00
27823;DHT22;29019;47.630;8.262;2023-06-10T16:42:39;21.80;55.10
27823;DHT22;29019;47.630;8.262;2023-06-10T16:46:40;21.80;55.10
27823;DHT22;29019;47.630;8.262;2023-06-10T16:50:41;21.80;55.00
27823;DHT22;29019;47.630;8.262;2023-06-10T16:54:41;21.80;55.00
27823;DHT22;29019;47.630;8.262;2023-06-10T16:58:42;21.80;55.10
27823;DHT22;29019;47.630;8.262;2023-06-10T17:02:43;21.80;55.00
27823;DHT22;29019;47.630;8.262;2023-06-10T17:06:43;21.80;55.10
27823;DHT22;29019;47.630;8.262;2023-06-10T17:10:44;21.80;55.10
27823;DHT22;29019;47.630;8.262;2023-06-10T17:14:45;21.80;55.10
27823;DHT22;29019;47.630;8.262;2023-06-10T17:18:45;21.80;55.10
27823;DHT22;29019;47.630;8.262;2023-06-10T17:22:46;21.80;55.10
27823;DHT22;29019;47.630;8.262;2023-06-10T17:26:47;21.80;55.20
27823;DHT22;29019;47.630;8.262;2023-06-10T17:30:47;21.80;55.20
27823;DHT22;29019;47.630;8.262;2023-06-10T17:34:48;21.80;55.10
27823;DHT22;29019;47.630;8.262;2023-06-10T17:38:48;21.80;55.10
27823;DHT22;29019;47.630;8.262;2023-06-10T17:42:51;21.80;55.10
27823;DHT22;29019;47.630;8.262;2023-06-10T17:46:52;21.80;55.10
27823;DHT22;29019;47.630;8.262;2023-06-10T17:50:52;21.80;55.10
27823;DHT22;29019;47.630;8.262;2023-06-10T17:54:53;21.80;55.10
27823;DHT22;29019;47.630;8.262;2023-06-10T17:58:54;21.80;55.10
27823;DHT22;29019;47.630;8.262;2023-06-10T18:02:54;21.80;55.10
27823;DHT22;29019;47.630;8.262;2023-06-10T18:06:55;21.80;55.10
27823;DHT22;29019;47.630;8.262;2023-06-10T18:10:55;21.80;55.10
27823;DHT22;29019;47.630;8.262;2023-06-10T18:14:56;21.80;55.10
27823;DHT22;29019;47.630;8.262;2023-06-10T18:18:57;21.80;55.10
27823;DHT22;29019;47.630;8.262;2023-06-10T18:22:58;21.80;55.10
27823;DHT22;29019;47.630;8.262;2023-06-10T18:26:58;21.80;55.10
27823;DHT22;29019;47.630;8.262;2023-06-10T18:31:00;21.80;55.00
27823;DHT22;29019;47.630;8.262;2023-06-10T18:35:01;21.80;55.10
27823;DHT22;29019;47.630;8.262;2023-06-10T18:39:01;21.80;55.10
27823;DHT22;29019;47.630;8.262;2023-06-10T18:43:02;21.80;55.10
27823;DHT22;29019;47.630;8.262;2023-06-10T18:47:03;21.80;55.10
27823;DHT22;29019;47.630;8.262;2023-06-10T18:51:04;21.80;55.20
27823;DHT22;29019;47.630;8.262;2023-06-10T18:55:04;21.80;55.20
27823;DHT22;29019;47.630;8.262;2023-06-10T18:59:05;21.80;55.20
27823;DHT22;29019;47.630;8.262;2023-06-10T19:03:06;21.70;55.10
27823;DHT22;29019;47.630;8.262;2023-06-10T19:07:06;21.80;55.20
27823;DHT22;29019;47.630;8.262;2023-06-10T19:11:07;21.80;55.20
27823;DHT22;29019;47.630;8.262;2023-06-10T19:15:08;21.80;55.20
27823;DHT22;29019;47.630;8.262;2023-06-10T19:19:09;21.80;55.20
27823;DHT22;29019;47.630;8.262;2023-06-10T19:23:10;21.80;55.20
27823;DHT22;29019;47.630;8.262;2023-06-10T19:27:11;21.80;55.10
27823;DHT22;29019;47.630;8.262;2023-06-10T19:31:11;21.80;55.10
27823;DHT22;29019;47.630;8.262;2023-06-10T19:35:12;21.80;55.20
27823;DHT22;29019;47.630;8.262;2023-06-10T19:39:13;21.80;55.20
27823;DHT22;29019;47.630;8.262;2023-06-10T19:43:14;21.80;55.20
27823;DHT22;29019;47.630;8.262;2023-06-10T19:47:15;21.80;55.20
27823;DHT22;29019;47.630;8.262;2023-06-10T19:51:16;21.80;55.20
27823;DHT22;29019;47.630;8.262;2023-06-10T19:55:20;21.80;55.20
27823;DHT22;29019;47.630;8.262;2023-06-10T19:59:21;21.80;55.20
27823;DHT22;29019;47.630;8.262;2023-06-10T20:03:21;21.80;55.20
27823;DHT22;29019;47.630;8.262;2023-06-10T20:07:22;21.80;55.20
27823;DHT22;29019;47.630;8.262;2023-06-10T20:11:23;21.80;55.20
27823;DHT22;29019;47.630;8.262;2023-06-10T20:15:23;21.80;55.30
27823;DHT22;29019;47.630;8.262;2023-06-10T20:19:24;21.80;55.20
27823;DHT22;29019;47.630;8.262;2023-06-10T20:23:25;21.80;55.20
27823;DHT22;29019;47.630;8.262;2023-06-10T20:27:25;21.80;55.30
27823;DHT22;29019;47.630;8.262;2023-06-10T20:31:26;21.80;55.30
27823;DHT22;29019;47.630;8.262;2023-06-10T20:35:27;21.80;55.30
27823;DHT22;29019;47.630;8.262;2023-06-10T20:39:27;21.80;55.20
27823;DHT22;29019;47.630;8.262;2023-06-10T20:43:28;21.80;55.20
27823;DHT22;29019;47.630;8.262;2023-06-10T20:47:29;21.80;55.30
27823;DHT22;29019;47.630;8.262;2023-06-10T20:51:29;21.80;55.20
27823;DHT22;29019;47.630;8.262;2023-06-10T20:55:30;21.80;55.20
27823;DHT22;29019;47.630;8.262;2023-06-10T20:59:31;21.80;55.20
27823;DHT22;29019;47.630;8.262;2023-06-10T21:03:31;21.80;55.20
27823;DHT22;29019;47.630;8.262;2023-06-10T21:07:32;21.80;55.20
27823;DHT22;29019;47.630;8.262;2023-06-10T21:11:32;21.80;55.20
27823;DHT22;29019;47.630;8.262;2023-06-10T21:15:33;21.80;55.20
27823;DHT22;29019;47.630;8.262;2023-06-10T21:19:34;21.80;55.20
27823;DHT22;29019;47.630;8.262;2023-06-10T21:23:34;21.80;55.20
27823;DHT22;29019;47.630;8.262;2023-06-10T21:27:35;21.80;55.20
27823;DHT22;29019;47.630;8.262;2023-06-10T21:31:36;21.80;55.20
27823;DHT22;29019;47.630;8.262;2023-06-10T21:35:36;21.80;55.20
27823;DHT22;29019;47.630;8.262;2023-06-10T21:39:37;21.80;55.20
27823;DHT22;29019;47.630;8.262;2023-06-10T21:43:38;21.80;55.20
27823;DHT22;29019;47.630;8.262;2023-06-10T21:47:39;21.80;55.30
27823;DHT22;29019;47.630;8.262;2023-06-10T21:51:39;21.80;55.30
27823;DHT22;29019;47.630;8.262;2023-06-10T21:55:40;21.80;55.30
27823;DHT22;29019;47.630;8.262;2023-06-10T21:59:40;21.80;55.30
27823;DHT22;29019;47.630;8.262;2023-06-10T22:03:43;21.80;55.30
27823;DHT22;29019;47.630;8.262;2023-06-10T22:07:44;21.80;55.30
27823;DHT22;29019;47.630;8.262;2023-06-10T22:11:45;21.80;55.30
27823;DHT22;29019;47.630;8.262;2023-06-10T22:15:46;21.80;55.30
27823;DHT22;29019;47.630;8.262;2023-06-10T22:19:46;21.80;55.30
27823;DHT22;29019;47.630;8.262;2023-06-10T22:23:47;21.80;55.30
27823;DHT22;29019;47.630;8.262;2023-06-10T22:27:48;21.80;55.20
27823;DHT22;29019;47.630;8.262;2023-06-10T22:31:48;21.80;55.30
27823;DHT22;29019;47.630;8.262;2023-06-10T22:35:49;21.80;55.20
27823;DHT22;29019;47.630;8.262;2023-06-10T22:39:49;21.80;55.20
27823;DHT22;29019;47.630;8.262;2023-06-10T22:43:50;21.80;55.30
27823;DHT22;29019;47.630;8.262;2023-06-10T22:47:52;21.80;55.30
27823;DHT22;29019;47.630;8.262;2023-06-10T22:51:52;21.80;55.30
27823;DHT22;29019;47.630;8.262;2023-06-10T22:55:53;21.80;55.20
27823;DHT22;29019;47.630;8.262;2023-06-10T22:59:53;21.80;55.20
27823;DHT22;29019;47.630;8.262;2023-06-10T23:03:54;21.80;55.20
27823;DHT22;29019;47.630;8.262;2023-06-10T23:07:55;21.80;55.20
27823;DHT22;29019;47.630;8.262;2023-06-10T23:11:55;21.80;55.20
27823;DHT22;29019;47.630;8.262;2023-06-10T23:15:56;21.80;55.20
27823;DHT22;29019;47.630;8.262;2023-06-10T23:19:56;21.80;55.30
27823;DHT22;29019;47.630;8.262;2023-06-10T23:23:59;21.80;55.30
27823;DHT22;29019;47.630;8.262;2023-06-10T23:27:59;21.80;55.30
27823;DHT22;29019;47.630;8.262;2023-06-10T23:32:00;21.80;55.40
27823;DHT22;29019;47.630;8.262;2023-06-10T23:36:01;21.80;55.40
27823;DHT22;29019;47.630;8.262;2023-06-10T23:40:01;21.80;55.40
27823;DHT22;29019;47.630;8.262;2023-06-10T23:44:02;21.80;55.40
27823;DHT22;29019;47.630;8.262;2023-06-10T23:48:04;21.70;55.30
27823;DHT22;29019;47.630;8.262;2023-06-10T23:52:04;21.70;55.30
27823;DHT22;29019;47.630;8.262;2023-06-10T23:56:05;21.80;55.30
